Íslenskir flugvellir

Veldu flugvelli í þeirri röð sem þeir eiga að birtast og styddu á hnappinn

Uppfært síðast 20.09.2019 - kl. 08:31

SIGMET síðustu 6 klst.

Engin SIGMET skeyti bárust síðustu 6 klst.

Reykjavík

METAR síðustu 3 klst

TímiSkeyti
2019-09-20 08.00METAR BIRK 200800Z 10008KT 9999 -RADZ FEW006 BKN015 OVC022 11/09 Q1001
2019-09-20 07.00METAR BIRK 200700Z 16010KT 9000 -DZBR OVC010 11/10 Q1001
2019-09-20 06.00METAR BIRK 200600Z 17010KT 9000 -RA BKN011 OVC020 11/10 Q1001

TAF

TAFBIRK2019-09-20 07.45Z20090916012KT 9999 RADZ BKN010 OVC020 TX13/2015Z TN11/2106Z TEMPO 2009/2015 4000 RADZ BR OVC006 BECMG 2016/2019 12018G28KT 9999 -DZ OVC025 PROB40 TEMPO 2021/2109 12025G35KT 5000 DZRA BR BKN010 OVC015

Allur vindur er réttvísandi bæði í Metar og frá sjálfvirkum veðurstöðvum




Aðrir tengdir vefir



Þetta vefsvæði byggir á Eplica